sensor_id;sensor_type;location;lat;lon;timestamp;P1;durP1;ratioP1;P2;durP2;ratioP2
1777;SDS011;886;50.082;8.222;2023-03-01T00:02:20;11.07;;;7.28;;
1777;SDS011;886;50.082;8.222;2023-03-01T00:04:48;11.75;;;7.50;;
1777;SDS011;886;50.082;8.222;2023-03-01T00:07:17;10.25;;;8.10;;
1777;SDS011;886;50.082;8.222;2023-03-01T00:09:50;10.50;;;8.05;;
1777;SDS011;886;50.082;8.222;2023-03-01T00:12:19;19.20;;;12.93;;
1777;SDS011;886;50.082;8.222;2023-03-01T00:14:52;15.68;;;9.10;;
1777;SDS011;886;50.082;8.222;2023-03-01T00:17:28;9.43;;;7.40;;
1777;SDS011;886;50.082;8.222;2023-03-01T00:20:08;11.27;;;7.78;;
1777;SDS011;886;50.082;8.222;2023-03-01T00:22:43;10.90;;;6.93;;
1777;SDS011;886;50.082;8.222;2023-03-01T00:25:13;11.98;;;7.70;;
1777;SDS011;886;50.082;8.222;2023-03-01T00:27:42;8.10;;;6.90;;
1777;SDS011;886;50.082;8.222;2023-03-01T00:30:21;12.30;;;8.30;;
1777;SDS011;886;50.082;8.222;2023-03-01T00:33:00;10.02;;;7.70;;
1777;SDS011;886;50.082;8.222;2023-03-01T00:35:40;11.05;;;7.75;;
1777;SDS011;886;50.082;8.222;2023-03-01T00:38:15;15.25;;;7.88;;
1777;SDS011;886;50.082;8.222;2023-03-01T00:40:48;12.52;;;8.15;;
1777;SDS011;886;50.082;8.222;2023-03-01T00:43:27;10.98;;;8.10;;
1777;SDS011;886;50.082;8.222;2023-03-01T00:46:06;9.93;;;7.90;;
1777;SDS011;886;50.082;8.222;2023-03-01T00:48:41;13.32;;;8.10;;
1777;SDS011;886;50.082;8.222;2023-03-01T00:51:10;10.85;;;8.00;;
1777;SDS011;886;50.082;8.222;2023-03-01T00:53:43;10.25;;;8.18;;
1777;SDS011;886;50.082;8.222;2023-03-01T00:56:20;15.52;;;7.93;;
1777;SDS011;886;50.082;8.222;2023-03-01T00:58:52;12.60;;;7.82;;
1777;SDS011;886;50.082;8.222;2023-03-01T01:01:24;12.02;;;8.00;;
1777;SDS011;886;50.082;8.222;2023-03-01T01:03:59;13.40;;;8.20;;
1777;SDS011;886;50.082;8.222;2023-03-01T01:06:46;10.70;;;7.68;;
1777;SDS011;886;50.082;8.222;2023-03-01T01:09:18;10.68;;;8.10;;
1777;SDS011;886;50.082;8.222;2023-03-01T01:12:00;9.48;;;7.80;;
1777;SDS011;886;50.082;8.222;2023-03-01T01:14:38;10.30;;;7.60;;
1777;SDS011;886;50.082;8.222;2023-03-01T01:17:06;13.35;;;8.02;;
1777;SDS011;886;50.082;8.222;2023-03-01T01:19:36;9.00;;;7.15;;
1777;SDS011;886;50.082;8.222;2023-03-01T01:22:10;14.27;;;7.63;;
1777;SDS011;886;50.082;8.222;2023-03-01T01:24:44;10.38;;;8.00;;
1777;SDS011;886;50.082;8.222;2023-03-01T01:27:14;11.13;;;7.15;;
1777;SDS011;886;50.082;8.222;2023-03-01T01:29:41;9.73;;;7.55;;
1777;SDS011;886;50.082;8.222;2023-03-01T01:32:09;11.15;;;7.85;;
1777;SDS011;886;50.082;8.222;2023-03-01T01:34:38;11.50;;;7.78;;
1777;SDS011;886;50.082;8.222;2023-03-01T01:37:06;11.05;;;8.02;;
1777;SDS011;886;50.082;8.222;2023-03-01T01:39:34;11.20;;;8.52;;
1777;SDS011;886;50.082;8.222;2023-03-01T01:42:02;14.93;;;7.80;;
1777;SDS011;886;50.082;8.222;2023-03-01T01:44:30;10.85;;;8.50;;
1777;SDS011;886;50.082;8.222;2023-03-01T01:47:01;14.25;;;9.10;;
1777;SDS011;886;50.082;8.222;2023-03-01T01:49:33;10.88;;;8.25;;
1777;SDS011;886;50.082;8.222;2023-03-01T01:52:09;15.00;;;8.60;;
1777;SDS011;886;50.082;8.222;2023-03-01T01:54:41;14.57;;;9.30;;
1777;SDS011;886;50.082;8.222;2023-03-01T01:57:14;11.30;;;8.07;;
1777;SDS011;886;50.082;8.222;2023-03-01T01:59:50;12.02;;;8.10;;
1777;SDS011;886;50.082;8.222;2023-03-01T02:02:23;13.00;;;8.55;;
1777;SDS011;886;50.082;8.222;2023-03-01T02:04:55;12.60;;;8.40;;
1777;SDS011;886;50.082;8.222;2023-03-01T02:07:30;14.77;;;9.27;;
1777;SDS011;886;50.082;8.222;2023-03-01T02:09:57;11.65;;;8.80;;
1777;SDS011;886;50.082;8.222;2023-03-01T02:12:25;15.23;;;8.75;;
1777;SDS011;886;50.082;8.222;2023-03-01T02:14:53;10.65;;;8.00;;
1777;SDS011;886;50.082;8.222;2023-03-01T02:17:20;13.07;;;8.70;;
1777;SDS011;886;50.082;8.222;2023-03-01T02:19:52;12.05;;;8.23;;
1777;SDS011;886;50.082;8.222;2023-03-01T02:22:34;12.90;;;9.25;;
1777;SDS011;886;50.082;8.222;2023-03-01T02:25:07;11.40;;;8.18;;
1777;SDS011;886;50.082;8.222;2023-03-01T02:28:21;10.55;;;8.85;;
1777;SDS011;886;50.082;8.222;2023-03-01T02:30:55;12.30;;;8.52;;
1777;SDS011;886;50.082;8.222;2023-03-01T02:33:42;9.38;;;7.80;;
1777;SDS011;886;50.082;8.222;2023-03-01T02:36:12;13.75;;;8.93;;
1777;SDS011;886;50.082;8.222;2023-03-01T02:38:47;10.15;;;8.43;;
1777;SDS011;886;50.082;8.222;2023-03-01T02:41:16;14.00;;;8.45;;
1777;SDS011;886;50.082;8.222;2023-03-01T02:43:47;11.90;;;8.35;;
1777;SDS011;886;50.082;8.222;2023-03-01T02:46:16;11.48;;;8.30;;
1777;SDS011;886;50.082;8.222;2023-03-01T02:48:46;10.90;;;8.85;;
1777;SDS011;886;50.082;8.222;2023-03-01T02:51:24;17.35;;;11.40;;
1777;SDS011;886;50.082;8.222;2023-03-01T02:54:10;42.97;;;23.60;;
1777;SDS011;886;50.082;8.222;2023-03-01T02:56:46;14.45;;;9.05;;
1777;SDS011;886;50.082;8.222;2023-03-01T02:59:16;24.58;;;9.63;;
1777;SDS011;886;50.082;8.222;2023-03-01T03:01:47;13.20;;;8.70;;
1777;SDS011;886;50.082;8.222;2023-03-01T03:04:15;17.08;;;9.98;;
1777;SDS011;886;50.082;8.222;2023-03-01T03:06:45;12.65;;;9.15;;
1777;SDS011;886;50.082;8.222;2023-03-01T03:09:14;16.70;;;8.77;;
1777;SDS011;886;50.082;8.222;2023-03-01T03:11:42;15.20;;;9.27;;
1777;SDS011;886;50.082;8.222;2023-03-01T03:14:11;12.82;;;9.82;;
1777;SDS011;886;50.082;8.222;2023-03-01T03:16:43;13.95;;;9.73;;
1777;SDS011;886;50.082;8.222;2023-03-01T03:19:12;13.45;;;9.65;;
1777;SDS011;886;50.082;8.222;2023-03-01T03:21:40;13.40;;;9.18;;
1777;SDS011;886;50.082;8.222;2023-03-01T03:24:08;12.50;;;8.50;;
1777;SDS011;886;50.082;8.222;2023-03-01T03:26:35;15.23;;;9.40;;
1777;SDS011;886;50.082;8.222;2023-03-01T03:29:03;14.25;;;9.95;;
1777;SDS011;886;50.082;8.222;2023-03-01T03:31:31;14.50;;;10.10;;
1777;SDS011;886;50.082;8.222;2023-03-01T03:34:00;13.95;;;9.20;;
1777;SDS011;886;50.082;8.222;2023-03-01T03:36:27;14.85;;;9.40;;
1777;SDS011;886;50.082;8.222;2023-03-01T03:38:55;15.00;;;9.20;;
1777;SDS011;886;50.082;8.222;2023-03-01T03:41:23;13.70;;;9.38;;
1777;SDS011;886;50.082;8.222;2023-03-01T03:43:50;13.20;;;9.00;;
1777;SDS011;886;50.082;8.222;2023-03-01T03:46:20;14.23;;;8.40;;
1777;SDS011;886;50.082;8.222;2023-03-01T03:48:47;15.25;;;9.15;;
1777;SDS011;886;50.082;8.222;2023-03-01T03:51:18;16.27;;;9.00;;
1777;SDS011;886;50.082;8.222;2023-03-01T03:53:46;13.48;;;9.80;;
1777;SDS011;886;50.082;8.222;2023-03-01T03:56:13;13.73;;;9.75;;
1777;SDS011;886;50.082;8.222;2023-03-01T03:58:40;15.65;;;9.55;;
1777;SDS011;886;50.082;8.222;2023-03-01T04:01:08;13.43;;;9.05;;
1777;SDS011;886;50.082;8.222;2023-03-01T04:03:38;18.05;;;8.32;;
1777;SDS011;886;50.082;8.222;2023-03-01T04:06:05;11.30;;;8.32;;
1777;SDS011;886;50.082;8.222;2023-03-01T04:08:34;11.77;;;9.10;;
1777;SDS011;886;50.082;8.222;2023-03-01T04:11:03;11.75;;;9.10;;
1777;SDS011;886;50.082;8.222;2023-03-01T04:13:50;13.40;;;8.55;;
1777;SDS011;886;50.082;8.222;2023-03-01T04:16:22;15.90;;;9.82;;
1777;SDS011;886;50.082;8.222;2023-03-01T04:18:50;9.45;;;7.88;;
1777;SDS011;886;50.082;8.222;2023-03-01T04:21:20;14.48;;;9.85;;
1777;SDS011;886;50.082;8.222;2023-03-01T04:23:49;11.50;;;8.80;;
1777;SDS011;886;50.082;8.222;2023-03-01T04:26:18;15.52;;;9.63;;
1777;SDS011;886;50.082;8.222;2023-03-01T04:28:46;14.52;;;9.52;;
1777;SDS011;886;50.082;8.222;2023-03-01T04:31:16;16.08;;;9.90;;
1777;SDS011;886;50.082;8.222;2023-03-01T04:33:48;20.48;;;10.77;;
1777;SDS011;886;50.082;8.222;2023-03-01T04:36:18;12.85;;;9.30;;
1777;SDS011;886;50.082;8.222;2023-03-01T04:38:52;17.17;;;10.18;;
1777;SDS011;886;50.082;8.222;2023-03-01T04:41:20;14.63;;;10.80;;
1777;SDS011;886;50.082;8.222;2023-03-01T04:43:51;16.10;;;10.40;;
1777;SDS011;886;50.082;8.222;2023-03-01T04:46:19;14.30;;;10.30;;
1777;SDS011;886;50.082;8.222;2023-03-01T04:48:48;16.15;;;10.90;;
1777;SDS011;886;50.082;8.222;2023-03-01T04:51:15;16.92;;;9.35;;
1777;SDS011;886;50.082;8.222;2023-03-01T04:53:44;17.23;;;9.38;;
1777;SDS011;886;50.082;8.222;2023-03-01T04:56:13;12.18;;;9.63;;
1777;SDS011;886;50.082;8.222;2023-03-01T04:58:41;13.32;;;9.50;;
1777;SDS011;886;50.082;8.222;2023-03-01T05:01:09;18.02;;;9.82;;
1777;SDS011;886;50.082;8.222;2023-03-01T05:03:42;13.32;;;8.90;;
1777;SDS011;886;50.082;8.222;2023-03-01T05:06:10;18.25;;;11.15;;
1777;SDS011;886;50.082;8.222;2023-03-01T05:08:38;14.55;;;10.45;;
1777;SDS011;886;50.082;8.222;2023-03-01T05:11:07;12.60;;;9.38;;
1777;SDS011;886;50.082;8.222;2023-03-01T05:13:36;13.85;;;9.85;;
1777;SDS011;886;50.082;8.222;2023-03-01T05:16:06;17.08;;;11.07;;
1777;SDS011;886;50.082;8.222;2023-03-01T05:18:38;15.30;;;10.35;;
1777;SDS011;886;50.082;8.222;2023-03-01T05:21:07;17.30;;;10.85;;
1777;SDS011;886;50.082;8.222;2023-03-01T05:23:37;23.10;;;12.38;;
1777;SDS011;886;50.082;8.222;2023-03-01T05:26:05;19.33;;;10.80;;
1777;SDS011;886;50.082;8.222;2023-03-01T05:28:52;19.08;;;10.60;;
1777;SDS011;886;50.082;8.222;2023-03-01T05:31:26;15.82;;;10.88;;
1777;SDS011;886;50.082;8.222;2023-03-01T05:33:54;19.58;;;11.38;;
1777;SDS011;886;50.082;8.222;2023-03-01T05:36:21;32.28;;;12.05;;
1777;SDS011;886;50.082;8.222;2023-03-01T05:38:48;31.92;;;12.23;;
1777;SDS011;886;50.082;8.222;2023-03-01T05:41:16;27.73;;;13.77;;
1777;SDS011;886;50.082;8.222;2023-03-01T05:43:43;29.38;;;12.20;;
1777;SDS011;886;50.082;8.222;2023-03-01T05:46:13;23.75;;;13.20;;
1777;SDS011;886;50.082;8.222;2023-03-01T05:48:41;28.23;;;12.07;;
1777;SDS011;886;50.082;8.222;2023-03-01T05:51:09;17.90;;;12.25;;
1777;SDS011;886;50.082;8.222;2023-03-01T05:53:37;19.00;;;11.82;;
1777;SDS011;886;50.082;8.222;2023-03-01T05:56:04;16.15;;;11.52;;
1777;SDS011;886;50.082;8.222;2023-03-01T05:58:33;14.73;;;10.50;;
1777;SDS011;886;50.082;8.222;2023-03-01T06:01:00;15.10;;;10.40;;
1777;SDS011;886;50.082;8.222;2023-03-01T06:03:29;16.73;;;10.35;;
1777;SDS011;886;50.082;8.222;2023-03-01T06:05:56;16.00;;;10.50;;
1777;SDS011;886;50.082;8.222;2023-03-01T06:08:25;17.67;;;9.88;;
1777;SDS011;886;50.082;8.222;2023-03-01T06:10:53;17.23;;;11.60;;
1777;SDS011;886;50.082;8.222;2023-03-01T06:13:21;17.88;;;11.30;;
1777;SDS011;886;50.082;8.222;2023-03-01T06:15:49;16.17;;;10.40;;
1777;SDS011;886;50.082;8.222;2023-03-01T06:18:17;19.77;;;11.13;;
1777;SDS011;886;50.082;8.222;2023-03-01T06:20:53;17.50;;;11.43;;
1777;SDS011;886;50.082;8.222;2023-03-01T06:23:22;17.45;;;11.50;;
1777;SDS011;886;50.082;8.222;2023-03-01T06:25:49;16.85;;;11.00;;
1777;SDS011;886;50.082;8.222;2023-03-01T06:28:17;16.08;;;9.35;;
1777;SDS011;886;50.082;8.222;2023-03-01T06:30:44;20.70;;;11.25;;
1777;SDS011;886;50.082;8.222;2023-03-01T06:33:12;16.10;;;12.07;;
1777;SDS011;886;50.082;8.222;2023-03-01T06:35:41;19.40;;;10.75;;
1777;SDS011;886;50.082;8.222;2023-03-01T06:38:09;23.73;;;11.00;;
1777;SDS011;886;50.082;8.222;2023-03-01T06:40:37;17.23;;;10.30;;
1777;SDS011;886;50.082;8.222;2023-03-01T06:43:04;22.10;;;10.38;;
1777;SDS011;886;50.082;8.222;2023-03-01T06:45:33;18.52;;;11.40;;
1777;SDS011;886;50.082;8.222;2023-03-01T06:48:01;17.77;;;10.88;;
1777;SDS011;886;50.082;8.222;2023-03-01T06:50:30;15.98;;;10.70;;
1777;SDS011;886;50.082;8.222;2023-03-01T06:52:58;15.98;;;9.98;;
1777;SDS011;886;50.082;8.222;2023-03-01T06:55:27;20.25;;;11.05;;
1777;SDS011;886;50.082;8.222;2023-03-01T06:57:54;17.65;;;10.77;;
1777;SDS011;886;50.082;8.222;2023-03-01T07:00:23;15.02;;;10.32;;
1777;SDS011;886;50.082;8.222;2023-03-01T07:02:51;15.30;;;11.73;;
1777;SDS011;886;50.082;8.222;2023-03-01T07:05:19;21.00;;;10.30;;
1777;SDS011;886;50.082;8.222;2023-03-01T07:07:46;12.95;;;10.25;;
1777;SDS011;886;50.082;8.222;2023-03-01T07:10:13;15.73;;;9.80;;
1777;SDS011;886;50.082;8.222;2023-03-01T07:12:42;19.73;;;10.85;;
1777;SDS011;886;50.082;8.222;2023-03-01T07:15:10;14.38;;;9.63;;
1777;SDS011;886;50.082;8.222;2023-03-01T07:17:37;17.48;;;9.90;;
1777;SDS011;886;50.082;8.222;2023-03-01T07:20:05;16.00;;;10.45;;
1777;SDS011;886;50.082;8.222;2023-03-01T07:22:33;14.55;;;9.93;;
1777;SDS011;886;50.082;8.222;2023-03-01T07:25:00;12.02;;;8.60;;
1777;SDS011;886;50.082;8.222;2023-03-01T07:27:27;15.52;;;10.10;;
1777;SDS011;886;50.082;8.222;2023-03-01T07:29:56;15.43;;;10.15;;
1777;SDS011;886;50.082;8.222;2023-03-01T07:32:23;15.15;;;10.02;;
1777;SDS011;886;50.082;8.222;2023-03-01T07:34:50;15.32;;;9.80;;
1777;SDS011;886;50.082;8.222;2023-03-01T07:37:18;13.30;;;10.00;;
1777;SDS011;886;50.082;8.222;2023-03-01T07:39:45;15.75;;;10.30;;
1777;SDS011;886;50.082;8.222;2023-03-01T07:42:13;14.00;;;9.70;;
1777;SDS011;886;50.082;8.222;2023-03-01T07:44:40;13.75;;;10.10;;
1777;SDS011;886;50.082;8.222;2023-03-01T07:47:09;14.30;;;9.32;;
1777;SDS011;886;50.082;8.222;2023-03-01T07:49:36;13.40;;;9.55;;
1777;SDS011;886;50.082;8.222;2023-03-01T07:52:04;17.25;;;10.35;;
1777;SDS011;886;50.082;8.222;2023-03-01T07:54:31;14.40;;;8.98;;
1777;SDS011;886;50.082;8.222;2023-03-01T07:56:59;15.50;;;9.32;;
1777;SDS011;886;50.082;8.222;2023-03-01T07:59:26;11.80;;;8.75;;
1777;SDS011;886;50.082;8.222;2023-03-01T08:01:55;19.15;;;10.50;;
1777;SDS011;886;50.082;8.222;2023-03-01T08:04:25;13.18;;;9.02;;
1777;SDS011;886;50.082;8.222;2023-03-01T08:06:53;11.60;;;10.40;;
1777;SDS011;886;50.082;8.222;2023-03-01T08:09:21;16.75;;;9.43;;
1777;SDS011;886;50.082;8.222;2023-03-01T08:11:48;14.75;;;9.88;;
1777;SDS011;886;50.082;8.222;2023-03-01T08:14:16;11.60;;;9.25;;
1777;SDS011;886;50.082;8.222;2023-03-01T08:16:44;15.10;;;10.35;;
1777;SDS011;886;50.082;8.222;2023-03-01T08:19:11;13.50;;;9.48;;
1777;SDS011;886;50.082;8.222;2023-03-01T08:21:40;12.75;;;9.10;;
1777;SDS011;886;50.082;8.222;2023-03-01T08:24:07;14.73;;;10.15;;
1777;SDS011;886;50.082;8.222;2023-03-01T08:26:37;15.35;;;9.73;;
1777;SDS011;886;50.082;8.222;2023-03-01T08:29:05;14.75;;;9.40;;
1777;SDS011;886;50.082;8.222;2023-03-01T08:31:34;14.95;;;9.60;;
1777;SDS011;886;50.082;8.222;2023-03-01T08:34:05;16.70;;;9.95;;
1777;SDS011;886;50.082;8.222;2023-03-01T08:36:35;21.08;;;9.70;;
1777;SDS011;886;50.082;8.222;2023-03-01T08:39:07;14.50;;;8.75;;
1777;SDS011;886;50.082;8.222;2023-03-01T08:41:36;16.92;;;9.80;;
1777;SDS011;886;50.082;8.222;2023-03-01T08:44:04;14.00;;;9.20;;
1777;SDS011;886;50.082;8.222;2023-03-01T08:46:34;14.35;;;9.50;;
1777;SDS011;886;50.082;8.222;2023-03-01T08:49:03;19.10;;;10.18;;
1777;SDS011;886;50.082;8.222;2023-03-01T08:51:31;11.43;;;8.95;;
1777;SDS011;886;50.082;8.222;2023-03-01T08:54:03;11.68;;;9.35;;
1777;SDS011;886;50.082;8.222;2023-03-01T08:56:32;18.60;;;10.10;;
1777;SDS011;886;50.082;8.222;2023-03-01T08:59:00;14.88;;;9.70;;
1777;SDS011;886;50.082;8.222;2023-03-01T09:01:30;14.75;;;10.07;;
1777;SDS011;886;50.082;8.222;2023-03-01T09:03:57;18.27;;;10.93;;
1777;SDS011;886;50.082;8.222;2023-03-01T09:06:25;18.25;;;11.50;;
1777;SDS011;886;50.082;8.222;2023-03-01T09:08:52;17.58;;;10.13;;
1777;SDS011;886;50.082;8.222;2023-03-01T09:11:21;16.65;;;9.90;;
1777;SDS011;886;50.082;8.222;2023-03-01T09:13:50;13.38;;;10.25;;
1777;SDS011;886;50.082;8.222;2023-03-01T09:16:19;13.73;;;8.90;;
1777;SDS011;886;50.082;8.222;2023-03-01T09:18:48;14.18;;;10.30;;
1777;SDS011;886;50.082;8.222;2023-03-01T09:21:18;13.40;;;10.23;;
1777;SDS011;886;50.082;8.222;2023-03-01T09:24:05;15.00;;;10.45;;
1777;SDS011;886;50.082;8.222;2023-03-01T09:26:32;17.02;;;11.30;;
1777;SDS011;886;50.082;8.222;2023-03-01T09:29:01;17.63;;;10.70;;
1777;SDS011;886;50.082;8.222;2023-03-01T09:31:29;17.35;;;10.38;;
1777;SDS011;886;50.082;8.222;2023-03-01T09:33:57;16.35;;;11.18;;
1777;SDS011;886;50.082;8.222;2023-03-01T09:36:24;16.15;;;10.88;;
1777;SDS011;886;50.082;8.222;2023-03-01T09:38:52;13.40;;;10.90;;
1777;SDS011;886;50.082;8.222;2023-03-01T09:41:30;14.65;;;10.73;;
1777;SDS011;886;50.082;8.222;2023-03-01T09:44:18;14.35;;;10.57;;
1777;SDS011;886;50.082;8.222;2023-03-01T09:47:17;15.00;;;10.38;;
1777;SDS011;886;50.082;8.222;2023-03-01T09:49:49;18.27;;;11.40;;
1777;SDS011;886;50.082;8.222;2023-03-01T09:52:28;13.75;;;10.65;;
1777;SDS011;886;50.082;8.222;2023-03-01T09:55:08;16.50;;;10.18;;
1777;SDS011;886;50.082;8.222;2023-03-01T09:57:41;17.23;;;11.27;;
1777;SDS011;886;50.082;8.222;2023-03-01T10:00:22;19.30;;;11.70;;
1777;SDS011;886;50.082;8.222;2023-03-01T10:02:58;14.18;;;10.68;;
1777;SDS011;886;50.082;8.222;2023-03-01T10:05:41;17.35;;;10.88;;
1777;SDS011;886;50.082;8.222;2023-03-01T10:11:12;16.45;;;11.02;;
1777;SDS011;886;50.082;8.222;2023-03-01T10:13:52;18.90;;;11.45;;
1777;SDS011;886;50.082;8.222;2023-03-01T10:16:28;17.65;;;11.38;;
1777;SDS011;886;50.082;8.222;2023-03-01T10:19:09;15.65;;;11.18;;
1777;SDS011;886;50.082;8.222;2023-03-01T10:21:44;17.73;;;10.45;;
1777;SDS011;886;50.082;8.222;2023-03-01T10:24:13;16.80;;;10.57;;
1777;SDS011;886;50.082;8.222;2023-03-01T10:26:47;15.80;;;10.55;;
1777;SDS011;886;50.082;8.222;2023-03-01T10:29:23;15.68;;;11.70;;
1777;SDS011;886;50.082;8.222;2023-03-01T10:31:57;18.52;;;10.70;;
1777;SDS011;886;50.082;8.222;2023-03-01T10:34:27;12.27;;;9.93;;
1777;SDS011;886;50.082;8.222;2023-03-01T10:36:57;17.38;;;11.80;;
1777;SDS011;886;50.082;8.222;2023-03-01T10:39:36;15.70;;;11.05;;
1777;SDS011;886;50.082;8.222;2023-03-01T10:42:04;16.65;;;10.85;;
1777;SDS011;886;50.082;8.222;2023-03-01T10:44:47;16.00;;;9.77;;
1777;SDS011;886;50.082;8.222;2023-03-01T10:47:18;12.98;;;10.15;;
1777;SDS011;886;50.082;8.222;2023-03-01T10:49:52;17.77;;;11.13;;
1777;SDS011;886;50.082;8.222;2023-03-01T10:52:23;17.07;;;10.97;;
1777;SDS011;886;50.082;8.222;2023-03-01T10:54:55;15.27;;;10.60;;
1777;SDS011;886;50.082;8.222;2023-03-01T10:57:29;14.05;;;10.27;;
1777;SDS011;886;50.082;8.222;2023-03-01T11:00:17;14.10;;;9.85;;
1777;SDS011;886;50.082;8.222;2023-03-01T11:02:50;17.67;;;10.88;;
1777;SDS011;886;50.082;8.222;2023-03-01T11:05:35;14.35;;;9.93;;
1777;SDS011;886;50.082;8.222;2023-03-01T11:08:03;14.50;;;10.07;;
1777;SDS011;886;50.082;8.222;2023-03-01T11:10:31;15.93;;;10.20;;
1777;SDS011;886;50.082;8.222;2023-03-01T11:13:05;12.13;;;8.98;;
1777;SDS011;886;50.082;8.222;2023-03-01T11:15:35;14.68;;;9.95;;
1777;SDS011;886;50.082;8.222;2023-03-01T11:18:04;13.10;;;9.67;;
1777;SDS011;886;50.082;8.222;2023-03-01T11:20:45;14.10;;;10.33;;
1777;SDS011;886;50.082;8.222;2023-03-01T11:23:13;14.83;;;10.07;;
1777;SDS011;886;50.082;8.222;2023-03-01T11:25:43;11.80;;;9.23;;
1777;SDS011;886;50.082;8.222;2023-03-01T11:28:18;11.27;;;8.80;;
1777;SDS011;886;50.082;8.222;2023-03-01T11:30:49;12.20;;;9.80;;
1777;SDS011;886;50.082;8.222;2023-03-01T11:33:37;12.37;;;9.37;;
1777;SDS011;886;50.082;8.222;2023-03-01T11:36:15;13.07;;;8.37;;
1777;SDS011;886;50.082;8.222;2023-03-01T11:38:53;11.35;;;8.75;;
1777;SDS011;886;50.082;8.222;2023-03-01T11:41:23;16.15;;;9.52;;
1777;SDS011;886;50.082;8.222;2023-03-01T11:43:56;12.82;;;8.38;;
1777;SDS011;886;50.082;8.222;2023-03-01T11:52:43;12.18;;;8.45;;
1777;SDS011;886;50.082;8.222;2023-03-01T11:55:31;12.67;;;8.97;;
1777;SDS011;886;50.082;8.222;2023-03-01T11:58:22;11.80;;;9.05;;
1777;SDS011;886;50.082;8.222;2023-03-01T12:01:10;11.20;;;8.65;;
1777;SDS011;886;50.082;8.222;2023-03-01T12:04:01;11.17;;;8.50;;
1777;SDS011;886;50.082;8.222;2023-03-01T12:07:14;12.37;;;8.30;;
1777;SDS011;886;50.082;8.222;2023-03-01T12:12:53;10.00;;;7.85;;
1777;SDS011;886;50.082;8.222;2023-03-01T12:16:12;15.03;;;9.07;;
1777;SDS011;886;50.082;8.222;2023-03-01T12:22:11;11.83;;;9.00;;
1777;SDS011;886;50.082;8.222;2023-03-01T12:24:59;10.82;;;8.13;;
1777;SDS011;886;50.082;8.222;2023-03-01T12:28:09;10.02;;;7.75;;
1777;SDS011;886;50.082;8.222;2023-03-01T12:31:17;10.67;;;7.90;;
1777;SDS011;886;50.082;8.222;2023-03-01T12:34:01;11.60;;;7.77;;
1777;SDS011;886;50.082;8.222;2023-03-01T12:36:44;13.73;;;8.00;;
1777;SDS011;886;50.082;8.222;2023-03-01T12:39:35;8.30;;;7.40;;
1777;SDS011;886;50.082;8.222;2023-03-01T12:42:18;10.53;;;8.43;;
1777;SDS011;886;50.082;8.222;2023-03-01T12:45:07;10.80;;;8.00;;
1777;SDS011;886;50.082;8.222;2023-03-01T12:47:58;11.48;;;7.95;;
1777;SDS011;886;50.082;8.222;2023-03-01T12:50:39;10.48;;;6.68;;
1777;SDS011;886;50.082;8.222;2023-03-01T12:53:15;12.05;;;7.10;;
1777;SDS011;886;50.082;8.222;2023-03-01T12:55:53;10.57;;;7.97;;
1777;SDS011;886;50.082;8.222;2023-03-01T12:58:28;11.20;;;7.63;;
1777;SDS011;886;50.082;8.222;2023-03-01T13:01:16;12.13;;;8.35;;
1777;SDS011;886;50.082;8.222;2023-03-01T13:04:00;10.10;;;8.23;;
1777;SDS011;886;50.082;8.222;2023-03-01T13:06:55;11.50;;;8.27;;
1777;SDS011;886;50.082;8.222;2023-03-01T13:09:36;10.30;;;7.43;;
1777;SDS011;886;50.082;8.222;2023-03-01T13:15:27;12.53;;;8.80;;
1777;SDS011;886;50.082;8.222;2023-03-01T13:18:00;12.60;;;8.20;;
1777;SDS011;886;50.082;8.222;2023-03-01T13:20:32;10.47;;;7.67;;
1777;SDS011;886;50.082;8.222;2023-03-01T13:23:12;10.03;;;7.23;;
1777;SDS011;886;50.082;8.222;2023-03-01T13:26:00;9.60;;;7.13;;
1777;SDS011;886;50.082;8.222;2023-03-01T13:28:44;10.73;;;7.47;;
1777;SDS011;886;50.082;8.222;2023-03-01T13:37:20;7.97;;;7.10;;
1777;SDS011;886;50.082;8.222;2023-03-01T13:40:00;8.17;;;7.33;;
1777;SDS011;886;50.082;8.222;2023-03-01T13:45:36;9.93;;;7.43;;
1777;SDS011;886;50.082;8.222;2023-03-01T13:48:09;10.57;;;7.53;;
1777;SDS011;886;50.082;8.222;2023-03-01T13:50:44;7.93;;;7.13;;
1777;SDS011;886;50.082;8.222;2023-03-01T13:53:17;7.83;;;6.60;;
1777;SDS011;886;50.082;8.222;2023-03-01T13:55:47;10.50;;;7.10;;
1777;SDS011;886;50.082;8.222;2023-03-01T13:58:22;9.70;;;6.80;;
1777;SDS011;886;50.082;8.222;2023-03-01T14:00:56;10.60;;;7.07;;
1777;SDS011;886;50.082;8.222;2023-03-01T14:03:27;11.60;;;7.87;;
1777;SDS011;886;50.082;8.222;2023-03-01T14:06:00;7.97;;;6.83;;
1777;SDS011;886;50.082;8.222;2023-03-01T14:08:45;10.37;;;7.80;;
1777;SDS011;886;50.082;8.222;2023-03-01T14:11:21;7.10;;;6.30;;
1777;SDS011;886;50.082;8.222;2023-03-01T14:20:12;13.03;;;6.40;;
1777;SDS011;886;50.082;8.222;2023-03-01T14:22:45;11.37;;;6.87;;
1777;SDS011;886;50.082;8.222;2023-03-01T14:25:19;8.53;;;6.30;;
1777;SDS011;886;50.082;8.222;2023-03-01T14:28:00;7.47;;;5.63;;
1777;SDS011;886;50.082;8.222;2023-03-01T14:30:32;7.10;;;5.67;;
1777;SDS011;886;50.082;8.222;2023-03-01T14:33:06;8.27;;;6.37;;
1777;SDS011;886;50.082;8.222;2023-03-01T14:35:54;7.87;;;5.83;;
1777;SDS011;886;50.082;8.222;2023-03-01T14:38:28;9.27;;;7.50;;
1777;SDS011;886;50.082;8.222;2023-03-01T14:40:59;8.87;;;6.77;;
1777;SDS011;886;50.082;8.222;2023-03-01T14:43:32;6.90;;;6.30;;
1777;SDS011;886;50.082;8.222;2023-03-01T14:45:59;7.93;;;6.47;;
1777;SDS011;886;50.082;8.222;2023-03-01T14:48:29;8.90;;;7.00;;
1777;SDS011;886;50.082;8.222;2023-03-01T14:50:57;8.63;;;6.90;;
1777;SDS011;886;50.082;8.222;2023-03-01T14:53:27;8.10;;;5.90;;
1777;SDS011;886;50.082;8.222;2023-03-01T14:56:12;10.43;;;7.73;;
1777;SDS011;886;50.082;8.222;2023-03-01T14:58:44;9.83;;;6.80;;
1777;SDS011;886;50.082;8.222;2023-03-01T15:01:14;9.13;;;7.53;;
1777;SDS011;886;50.082;8.222;2023-03-01T15:03:45;10.10;;;7.30;;
1777;SDS011;886;50.082;8.222;2023-03-01T15:06:15;12.60;;;7.40;;
1777;SDS011;886;50.082;8.222;2023-03-01T15:08:46;9.70;;;7.10;;
1777;SDS011;886;50.082;8.222;2023-03-01T15:11:17;8.93;;;7.00;;
1777;SDS011;886;50.082;8.222;2023-03-01T15:13:49;11.27;;;7.20;;
1777;SDS011;886;50.082;8.222;2023-03-01T15:16:18;9.80;;;7.00;;
1777;SDS011;886;50.082;8.222;2023-03-01T15:18:54;10.50;;;7.70;;
1777;SDS011;886;50.082;8.222;2023-03-01T15:21:24;10.27;;;8.47;;
1777;SDS011;886;50.082;8.222;2023-03-01T15:23:57;9.33;;;7.63;;
1777;SDS011;886;50.082;8.222;2023-03-01T15:26:31;11.13;;;7.63;;
1777;SDS011;886;50.082;8.222;2023-03-01T15:29:04;9.67;;;7.57;;
1777;SDS011;886;50.082;8.222;2023-03-01T15:31:50;9.70;;;7.77;;
1777;SDS011;886;50.082;8.222;2023-03-01T15:34:24;9.07;;;7.23;;
1777;SDS011;886;50.082;8.222;2023-03-01T15:36:54;10.73;;;7.50;;
1777;SDS011;886;50.082;8.222;2023-03-01T15:39:34;11.53;;;6.27;;
1777;SDS011;886;50.082;8.222;2023-03-01T15:42:07;11.13;;;6.67;;
1777;SDS011;886;50.082;8.222;2023-03-01T15:44:39;11.67;;;7.17;;
1777;SDS011;886;50.082;8.222;2023-03-01T15:47:22;8.20;;;6.90;;
1777;SDS011;886;50.082;8.222;2023-03-01T15:49:54;9.70;;;7.63;;
1777;SDS011;886;50.082;8.222;2023-03-01T15:52:25;9.57;;;7.20;;
1777;SDS011;886;50.082;8.222;2023-03-01T15:54:58;9.23;;;7.23;;
1777;SDS011;886;50.082;8.222;2023-03-01T15:57:28;10.90;;;7.40;;
1777;SDS011;886;50.082;8.222;2023-03-01T15:59:56;9.30;;;7.60;;
1777;SDS011;886;50.082;8.222;2023-03-01T16:02:23;12.50;;;7.83;;
1777;SDS011;886;50.082;8.222;2023-03-01T16:04:51;10.33;;;7.33;;
1777;SDS011;886;50.082;8.222;2023-03-01T16:07:21;11.10;;;7.50;;
1777;SDS011;886;50.082;8.222;2023-03-01T16:09:48;11.20;;;7.00;;
1777;SDS011;886;50.082;8.222;2023-03-01T16:12:16;12.30;;;8.50;;
1777;SDS011;886;50.082;8.222;2023-03-01T16:14:43;11.47;;;7.67;;
1777;SDS011;886;50.082;8.222;2023-03-01T16:17:11;11.67;;;7.03;;
1777;SDS011;886;50.082;8.222;2023-03-01T16:19:39;14.27;;;7.90;;
1777;SDS011;886;50.082;8.222;2023-03-01T16:22:08;7.10;;;6.17;;